sensor_id;sensor_type;location;lat;lon;timestamp;P1;durP1;ratioP1;P2;durP2;ratioP2
32242;SDS011;18731;42.830;24.390;2023-05-19T03:00:10;12.38;;;5.80;;
32242;SDS011;18731;42.830;24.390;2023-05-19T03:02:37;11.07;;;5.38;;
32242;SDS011;18731;42.830;24.390;2023-05-19T03:05:11;10.02;;;5.68;;
32242;SDS011;18731;42.830;24.390;2023-05-19T03:07:46;5.80;;;4.93;;
32242;SDS011;18731;42.830;24.390;2023-05-19T03:11:09;7.82;;;5.28;;
32242;SDS011;18731;42.830;24.390;2023-05-19T03:14:44;8.30;;;5.43;;
32242;SDS011;18731;42.830;24.390;2023-05-19T03:17:48;6.65;;;4.30;;
32242;SDS011;18731;42.830;24.390;2023-05-19T03:20:19;7.72;;;4.68;;
32242;SDS011;18731;42.830;24.390;2023-05-19T03:27:06;6.50;;;4.85;;
32242;SDS011;18731;42.830;24.390;2023-05-19T03:29:35;12.93;;;5.40;;
32242;SDS011;18731;42.830;24.390;2023-05-19T03:32:10;9.75;;;5.65;;
32242;SDS011;18731;42.830;24.390;2023-05-19T03:34:41;19.05;;;5.60;;
32242;SDS011;18731;42.830;24.390;2023-05-19T03:37:27;9.95;;;5.53;;
32242;SDS011;18731;42.830;24.390;2023-05-19T03:39:56;7.35;;;5.32;;
32242;SDS011;18731;42.830;24.390;2023-05-19T03:42:25;9.60;;;5.93;;
32242;SDS011;18731;42.830;24.390;2023-05-19T03:44:59;9.30;;;6.32;;
32242;SDS011;18731;42.830;24.390;2023-05-19T03:47:32;11.52;;;6.78;;
32242;SDS011;18731;42.830;24.390;2023-05-19T03:50:01;13.50;;;5.95;;
32242;SDS011;18731;42.830;24.390;2023-05-19T03:52:37;15.73;;;6.03;;
32242;SDS011;18731;42.830;24.390;2023-05-19T03:55:45;7.25;;;6.07;;
32242;SDS011;18731;42.830;24.390;2023-05-19T03:58:16;11.02;;;6.40;;
32242;SDS011;18731;42.830;24.390;2023-05-19T04:10:14;12.60;;;6.53;;
32242;SDS011;18731;42.830;24.390;2023-05-19T04:12:44;9.95;;;7.13;;
32242;SDS011;18731;42.830;24.390;2023-05-19T04:15:13;9.23;;;6.13;;
32242;SDS011;18731;42.830;24.390;2023-05-19T04:18:14;13.30;;;5.97;;
32242;SDS011;18731;42.830;24.390;2023-05-19T04:23:41;8.20;;;6.28;;
32242;SDS011;18731;42.830;24.390;2023-05-19T04:28:43;10.32;;;6.78;;
32242;SDS011;18731;42.830;24.390;2023-05-19T04:31:16;10.73;;;6.88;;
32242;SDS011;18731;42.830;24.390;2023-05-19T04:33:48;11.90;;;6.15;;
32242;SDS011;18731;42.830;24.390;2023-05-19T04:44:52;7.82;;;6.22;;
32242;SDS011;18731;42.830;24.390;2023-05-19T04:48:05;10.43;;;5.53;;
32242;SDS011;18731;42.830;24.390;2023-05-19T04:53:31;8.75;;;5.55;;
32242;SDS011;18731;42.830;24.390;2023-05-19T04:56:22;12.25;;;5.75;;
32242;SDS011;18731;42.830;24.390;2023-05-19T04:58:53;8.10;;;5.10;;
32242;SDS011;18731;42.830;24.390;2023-05-19T05:01:44;10.23;;;6.40;;
32242;SDS011;18731;42.830;24.390;2023-05-19T05:04:18;16.52;;;13.13;;
32242;SDS011;18731;42.830;24.390;2023-05-19T05:06:50;15.15;;;8.75;;
32242;SDS011;18731;42.830;24.390;2023-05-19T05:09:21;14.57;;;10.27;;
32242;SDS011;18731;42.830;24.390;2023-05-19T05:11:53;12.40;;;8.02;;
32242;SDS011;18731;42.830;24.390;2023-05-19T05:14:19;9.07;;;6.78;;
32242;SDS011;18731;42.830;24.390;2023-05-19T05:16:57;9.52;;;6.35;;
32242;SDS011;18731;42.830;24.390;2023-05-19T05:20:33;8.20;;;5.78;;
32242;SDS011;18731;42.830;24.390;2023-05-19T05:26:33;10.43;;;6.72;;
32242;SDS011;18731;42.830;24.390;2023-05-19T05:29:06;6.05;;;5.15;;
32242;SDS011;18731;42.830;24.390;2023-05-19T05:31:57;8.82;;;5.53;;
32242;SDS011;18731;42.830;24.390;2023-05-19T05:34:29;8.20;;;5.32;;
32242;SDS011;18731;42.830;24.390;2023-05-19T05:37:04;8.40;;;5.68;;
32242;SDS011;18731;42.830;24.390;2023-05-19T05:39:41;12.75;;;6.88;;
32242;SDS011;18731;42.830;24.390;2023-05-19T05:42:46;20.73;;;9.02;;
32242;SDS011;18731;42.830;24.390;2023-05-19T05:45:36;12.00;;;8.75;;
32242;SDS011;18731;42.830;24.390;2023-05-19T05:48:49;16.17;;;10.82;;
32242;SDS011;18731;42.830;24.390;2023-05-19T05:52:19;17.98;;;11.38;;
32242;SDS011;18731;42.830;24.390;2023-05-19T05:55:16;19.13;;;10.55;;
32242;SDS011;18731;42.830;24.390;2023-05-19T05:58:11;13.52;;;9.65;;
32242;SDS011;18731;42.830;24.390;2023-05-19T06:00:57;13.85;;;8.50;;
32242;SDS011;18731;42.830;24.390;2023-05-19T06:20:29;8.60;;;7.38;;
32242;SDS011;18731;42.830;24.390;2023-05-19T06:22:56;11.98;;;7.43;;
32242;SDS011;18731;42.830;24.390;2023-05-19T06:25:25;8.75;;;6.55;;
32242;SDS011;18731;42.830;24.390;2023-05-19T06:28:29;10.40;;;6.70;;
32242;SDS011;18731;42.830;24.390;2023-05-19T06:34:04;14.82;;;6.35;;
32242;SDS011;18731;42.830;24.390;2023-05-19T06:36:30;10.73;;;5.90;;
32242;SDS011;18731;42.830;24.390;2023-05-19T06:39:16;9.65;;;5.60;;
32242;SDS011;18731;42.830;24.390;2023-05-19T06:42:42;6.72;;;5.40;;
32242;SDS011;18731;42.830;24.390;2023-05-19T06:45:10;7.68;;;5.30;;
32242;SDS011;18731;42.830;24.390;2023-05-19T06:47:50;10.43;;;5.95;;
32242;SDS011;18731;42.830;24.390;2023-05-19T06:50:33;12.98;;;7.88;;
32242;SDS011;18731;42.830;24.390;2023-05-19T06:56:10;9.57;;;6.25;;
32242;SDS011;18731;42.830;24.390;2023-05-19T06:58:44;12.70;;;6.30;;
32242;SDS011;18731;42.830;24.390;2023-05-19T07:01:14;14.32;;;6.70;;
32242;SDS011;18731;42.830;24.390;2023-05-19T07:03:45;11.98;;;6.95;;
32242;SDS011;18731;42.830;24.390;2023-05-19T07:06:11;12.43;;;5.90;;
32242;SDS011;18731;42.830;24.390;2023-05-19T07:08:40;12.98;;;6.85;;
32242;SDS011;18731;42.830;24.390;2023-05-19T07:11:10;18.50;;;12.18;;
32242;SDS011;18731;42.830;24.390;2023-05-19T07:13:36;11.85;;;6.88;;
32242;SDS011;18731;42.830;24.390;2023-05-19T07:16:05;9.93;;;6.43;;
32242;SDS011;18731;42.830;24.390;2023-05-19T07:18:34;15.88;;;8.93;;
32242;SDS011;18731;42.830;24.390;2023-05-19T07:21:01;10.43;;;7.13;;
32242;SDS011;18731;42.830;24.390;2023-05-19T07:23:35;10.43;;;6.60;;
32242;SDS011;18731;42.830;24.390;2023-05-19T07:26:14;15.98;;;7.30;;
32242;SDS011;18731;42.830;24.390;2023-05-19T07:28:41;12.35;;;7.32;;
32242;SDS011;18731;42.830;24.390;2023-05-19T07:31:10;15.60;;;7.22;;
32242;SDS011;18731;42.830;24.390;2023-05-19T07:34:11;11.45;;;6.57;;
32242;SDS011;18731;42.830;24.390;2023-05-19T07:36:37;13.77;;;6.72;;
32242;SDS011;18731;42.830;24.390;2023-05-19T07:39:16;11.35;;;6.95;;
32242;SDS011;18731;42.830;24.390;2023-05-19T07:42:03;11.05;;;6.45;;
32242;SDS011;18731;42.830;24.390;2023-05-19T07:45:02;10.43;;;8.00;;
32242;SDS011;18731;42.830;24.390;2023-05-19T07:48:10;15.15;;;8.30;;
32242;SDS011;18731;42.830;24.390;2023-05-19T07:51:00;15.00;;;9.75;;
32242;SDS011;18731;42.830;24.390;2023-05-19T07:53:28;14.60;;;9.88;;
32242;SDS011;18731;42.830;24.390;2023-05-19T07:55:56;14.30;;;10.32;;
32242;SDS011;18731;42.830;24.390;2023-05-19T07:58:35;17.70;;;9.43;;
32242;SDS011;18731;42.830;24.390;2023-05-19T08:01:12;25.45;;;10.00;;
32242;SDS011;18731;42.830;24.390;2023-05-19T08:03:42;15.68;;;9.20;;
32242;SDS011;18731;42.830;24.390;2023-05-19T08:06:20;25.88;;;9.43;;
32242;SDS011;18731;42.830;24.390;2023-05-19T08:09:04;16.33;;;9.77;;
32242;SDS011;18731;42.830;24.390;2023-05-19T08:11:30;15.80;;;8.75;;
32242;SDS011;18731;42.830;24.390;2023-05-19T08:14:02;15.68;;;8.57;;
32242;SDS011;18731;42.830;24.390;2023-05-19T08:16:31;14.18;;;8.85;;
32242;SDS011;18731;42.830;24.390;2023-05-19T08:19:00;12.88;;;8.80;;
32242;SDS011;18731;42.830;24.390;2023-05-19T08:21:31;12.32;;;8.30;;
32242;SDS011;18731;42.830;24.390;2023-05-19T08:24:01;13.55;;;8.15;;
32242;SDS011;18731;42.830;24.390;2023-05-19T08:26:27;16.95;;;9.32;;
32242;SDS011;18731;42.830;24.390;2023-05-19T08:28:56;17.70;;;8.85;;
32242;SDS011;18731;42.830;24.390;2023-05-19T08:31:22;18.70;;;8.52;;
32242;SDS011;18731;42.830;24.390;2023-05-19T08:33:49;17.80;;;9.30;;
32242;SDS011;18731;42.830;24.390;2023-05-19T08:36:16;13.65;;;9.20;;
32242;SDS011;18731;42.830;24.390;2023-05-19T08:38:42;16.67;;;9.77;;
32242;SDS011;18731;42.830;24.390;2023-05-19T08:41:09;19.48;;;9.63;;
32242;SDS011;18731;42.830;24.390;2023-05-19T08:43:35;19.30;;;9.52;;
32242;SDS011;18731;42.830;24.390;2023-05-19T08:46:14;20.20;;;10.10;;
32242;SDS011;18731;42.830;24.390;2023-05-19T08:48:57;15.60;;;9.57;;
32242;SDS011;18731;42.830;24.390;2023-05-19T08:52:05;14.38;;;9.45;;
32242;SDS011;18731;42.830;24.390;2023-05-19T08:55:16;15.52;;;9.43;;
32242;SDS011;18731;42.830;24.390;2023-05-19T08:57:51;17.25;;;9.82;;
32242;SDS011;18731;42.830;24.390;2023-05-19T09:00:19;14.60;;;8.98;;
32242;SDS011;18731;42.830;24.390;2023-05-19T09:03:06;19.88;;;9.48;;
32242;SDS011;18731;42.830;24.390;2023-05-19T09:05:52;14.95;;;9.93;;
32242;SDS011;18731;42.830;24.390;2023-05-19T09:08:20;20.95;;;9.48;;
32242;SDS011;18731;42.830;24.390;2023-05-19T09:10:47;15.57;;;9.50;;
32242;SDS011;18731;42.830;24.390;2023-05-19T09:13:36;13.10;;;9.68;;
32242;SDS011;18731;42.830;24.390;2023-05-19T09:16:28;19.45;;;9.13;;
32242;SDS011;18731;42.830;24.390;2023-05-19T09:19:27;14.85;;;9.18;;
32242;SDS011;18731;42.830;24.390;2023-05-19T09:22:49;17.30;;;9.55;;
32242;SDS011;18731;42.830;24.390;2023-05-19T09:25:26;17.15;;;9.65;;
32242;SDS011;18731;42.830;24.390;2023-05-19T09:28:01;19.10;;;10.10;;
32242;SDS011;18731;42.830;24.390;2023-05-19T09:30:31;15.82;;;9.63;;
32242;SDS011;18731;42.830;24.390;2023-05-19T09:32:58;12.93;;;9.10;;
32242;SDS011;18731;42.830;24.390;2023-05-19T09:35:28;20.00;;;9.35;;
32242;SDS011;18731;42.830;24.390;2023-05-19T09:38:06;17.42;;;10.05;;
32242;SDS011;18731;42.830;24.390;2023-05-19T09:40:56;20.50;;;9.60;;
32242;SDS011;18731;42.830;24.390;2023-05-19T09:43:41;21.45;;;9.73;;
32242;SDS011;18731;42.830;24.390;2023-05-19T09:46:07;23.25;;;10.18;;
32242;SDS011;18731;42.830;24.390;2023-05-19T09:48:40;21.77;;;9.45;;
32242;SDS011;18731;42.830;24.390;2023-05-19T09:51:15;15.75;;;9.88;;
32242;SDS011;18731;42.830;24.390;2023-05-19T09:54:13;15.15;;;9.68;;
32242;SDS011;18731;42.830;24.390;2023-05-19T09:56:40;16.95;;;10.98;;
32242;SDS011;18731;42.830;24.390;2023-05-19T09:59:07;18.17;;;9.73;;
32242;SDS011;18731;42.830;24.390;2023-05-19T10:01:54;14.25;;;9.90;;
32242;SDS011;18731;42.830;24.390;2023-05-19T10:04:21;23.77;;;10.35;;
32242;SDS011;18731;42.830;24.390;2023-05-19T10:06:55;20.00;;;10.55;;
32242;SDS011;18731;42.830;24.390;2023-05-19T10:09:26;28.30;;;10.63;;
32242;SDS011;18731;42.830;24.390;2023-05-19T10:11:59;21.27;;;9.40;;
32242;SDS011;18731;42.830;24.390;2023-05-19T10:15:09;22.15;;;9.43;;
32242;SDS011;18731;42.830;24.390;2023-05-19T10:18:00;16.52;;;9.95;;
32242;SDS011;18731;42.830;24.390;2023-05-19T10:23:17;17.70;;;10.48;;
32242;SDS011;18731;42.830;24.390;2023-05-19T10:25:43;15.82;;;9.70;;
32242;SDS011;18731;42.830;24.390;2023-05-19T10:28:12;20.10;;;10.13;;
32242;SDS011;18731;42.830;24.390;2023-05-19T10:30:43;14.80;;;10.48;;
32242;SDS011;18731;42.830;24.390;2023-05-19T10:33:12;17.00;;;10.18;;
32242;SDS011;18731;42.830;24.390;2023-05-19T10:35:48;17.70;;;10.27;;
32242;SDS011;18731;42.830;24.390;2023-05-19T10:38:39;18.58;;;9.98;;
32242;SDS011;18731;42.830;24.390;2023-05-19T10:41:27;18.20;;;9.48;;
32242;SDS011;18731;42.830;24.390;2023-05-19T10:47:14;21.20;;;9.98;;
32242;SDS011;18731;42.830;24.390;2023-05-19T10:49:51;16.05;;;10.40;;
32242;SDS011;18731;42.830;24.390;2023-05-19T10:52:26;17.73;;;10.32;;
32242;SDS011;18731;42.830;24.390;2023-05-19T10:58:57;18.23;;;10.25;;
32242;SDS011;18731;42.830;24.390;2023-05-19T11:02:06;17.13;;;9.48;;
32242;SDS011;18731;42.830;24.390;2023-05-19T11:04:48;20.55;;;10.25;;
32242;SDS011;18731;42.830;24.390;2023-05-19T11:07:28;14.15;;;9.93;;
32242;SDS011;18731;42.830;24.390;2023-05-19T11:10:22;20.92;;;10.73;;
32242;SDS011;18731;42.830;24.390;2023-05-19T11:13:01;19.70;;;10.15;;
32242;SDS011;18731;42.830;24.390;2023-05-19T11:15:56;17.52;;;9.95;;
32242;SDS011;18731;42.830;24.390;2023-05-19T11:18:52;17.30;;;10.80;;
32242;SDS011;18731;42.830;24.390;2023-05-19T11:21:22;18.08;;;9.82;;
32242;SDS011;18731;42.830;24.390;2023-05-19T11:23:58;16.00;;;10.20;;
32242;SDS011;18731;42.830;24.390;2023-05-19T11:26:39;21.17;;;9.55;;
32242;SDS011;18731;42.830;24.390;2023-05-19T11:29:10;15.13;;;9.40;;
32242;SDS011;18731;42.830;24.390;2023-05-19T11:32:03;19.40;;;10.30;;
32242;SDS011;18731;42.830;24.390;2023-05-19T11:34:32;18.52;;;9.77;;
32242;SDS011;18731;42.830;24.390;2023-05-19T11:43:01;15.43;;;9.40;;
32242;SDS011;18731;42.830;24.390;2023-05-19T11:45:28;15.30;;;8.82;;
32242;SDS011;18731;42.830;24.390;2023-05-19T11:48:36;15.15;;;9.90;;
32242;SDS011;18731;42.830;24.390;2023-05-19T11:51:56;13.32;;;8.98;;
32242;SDS011;18731;42.830;24.390;2023-05-19T11:55:32;22.02;;;9.02;;
32242;SDS011;18731;42.830;24.390;2023-05-19T12:00:35;15.70;;;10.52;;
32242;SDS011;18731;42.830;24.390;2023-05-19T12:03:08;15.98;;;9.57;;
32242;SDS011;18731;42.830;24.390;2023-05-19T12:05:39;19.83;;;9.98;;
32242;SDS011;18731;42.830;24.390;2023-05-19T12:08:19;16.70;;;9.38;;
32242;SDS011;18731;42.830;24.390;2023-05-19T12:10:50;18.83;;;9.15;;
32242;SDS011;18731;42.830;24.390;2023-05-19T12:13:44;19.77;;;9.45;;
32242;SDS011;18731;42.830;24.390;2023-05-19T12:16:42;22.20;;;9.77;;
32242;SDS011;18731;42.830;24.390;2023-05-19T12:19:15;18.30;;;9.65;;
32242;SDS011;18731;42.830;24.390;2023-05-19T12:25:02;18.27;;;9.55;;
32242;SDS011;18731;42.830;24.390;2023-05-19T12:30:51;14.48;;;8.90;;
32242;SDS011;18731;42.830;24.390;2023-05-19T12:33:33;16.67;;;9.02;;
32242;SDS011;18731;42.830;24.390;2023-05-19T12:36:19;21.88;;;9.48;;
32242;SDS011;18731;42.830;24.390;2023-05-19T12:39:07;20.88;;;9.20;;
32242;SDS011;18731;42.830;24.390;2023-05-19T12:45:11;14.02;;;8.73;;
32242;SDS011;18731;42.830;24.390;2023-05-19T12:51:38;12.82;;;8.43;;
32242;SDS011;18731;42.830;24.390;2023-05-19T12:54:07;23.60;;;9.35;;
32242;SDS011;18731;42.830;24.390;2023-05-19T12:56:51;12.65;;;9.05;;
32242;SDS011;18731;42.830;24.390;2023-05-19T13:00:16;12.82;;;8.90;;
32242;SDS011;18731;42.830;24.390;2023-05-19T13:03:02;22.65;;;9.38;;
32242;SDS011;18731;42.830;24.390;2023-05-19T13:06:28;17.05;;;8.23;;
32242;SDS011;18731;42.830;24.390;2023-05-19T13:09:00;17.95;;;9.60;;
32242;SDS011;18731;42.830;24.390;2023-05-19T13:13:54;13.05;;;8.93;;
32242;SDS011;18731;42.830;24.390;2023-05-19T13:16:32;21.60;;;9.70;;
32242;SDS011;18731;42.830;24.390;2023-05-19T13:19:27;18.67;;;9.07;;
32242;SDS011;18731;42.830;24.390;2023-05-19T13:21:53;18.58;;;9.15;;
32242;SDS011;18731;42.830;24.390;2023-05-19T13:26:55;24.77;;;9.55;;
32242;SDS011;18731;42.830;24.390;2023-05-19T13:30:05;15.65;;;9.05;;
32242;SDS011;18731;42.830;24.390;2023-05-19T14:42:55;20.23;;;9.05;;
32242;SDS011;18731;42.830;24.390;2023-05-19T14:59:25;11.57;;;7.72;;
32242;SDS011;18731;42.830;24.390;2023-05-19T17:46:46;8.90;;;6.00;;
32242;SDS011;18731;42.830;24.390;2023-05-19T18:09:19;14.35;;;5.82;;
32242;SDS011;18731;42.830;24.390;2023-05-19T18:26:50;11.95;;;6.07;;
32242;SDS011;18731;42.830;24.390;2023-05-19T18:39:37;10.38;;;6.95;;
32242;SDS011;18731;42.830;24.390;2023-05-19T18:44:48;15.38;;;8.48;;
32242;SDS011;18731;42.830;24.390;2023-05-19T18:47:15;16.38;;;9.60;;
32242;SDS011;18731;42.830;24.390;2023-05-19T18:57:35;22.10;;;14.15;;
32242;SDS011;18731;42.830;24.390;2023-05-19T19:05:12;22.10;;;9.90;;
32242;SDS011;18731;42.830;24.390;2023-05-19T19:07:42;17.23;;;8.40;;
32242;SDS011;18731;42.830;24.390;2023-05-19T19:18:54;15.85;;;7.28;;
32242;SDS011;18731;42.830;24.390;2023-05-19T19:28:25;11.85;;;7.03;;
32242;SDS011;18731;42.830;24.390;2023-05-19T19:30:51;15.18;;;7.47;;
32242;SDS011;18731;42.830;24.390;2023-05-19T19:33:27;33.20;;;17.98;;
32242;SDS011;18731;42.830;24.390;2023-05-19T19:35:59;27.52;;;16.10;;
32242;SDS011;18731;42.830;24.390;2023-05-19T19:44:43;26.55;;;9.73;;
32242;SDS011;18731;42.830;24.390;2023-05-19T19:47:09;11.95;;;7.78;;
32242;SDS011;18731;42.830;24.390;2023-05-19T20:04:35;11.90;;;6.88;;
32242;SDS011;18731;42.830;24.390;2023-05-19T20:13:20;17.15;;;6.45;;
32242;SDS011;18731;42.830;24.390;2023-05-19T20:18:21;19.58;;;9.55;;
32242;SDS011;18731;42.830;24.390;2023-05-19T20:28:35;17.65;;;6.95;;
32242;SDS011;18731;42.830;24.390;2023-05-19T20:31:01;16.45;;;5.78;;
32242;SDS011;18731;42.830;24.390;2023-05-19T20:33:33;10.90;;;5.90;;
32242;SDS011;18731;42.830;24.390;2023-05-19T20:49:52;19.30;;;9.27;;
32242;SDS011;18731;42.830;24.390;2023-05-19T20:52:20;16.27;;;9.05;;
32242;SDS011;18731;42.830;24.390;2023-05-19T21:00:50;10.63;;;6.35;;
32242;SDS011;18731;42.830;24.390;2023-05-19T21:03:22;11.00;;;6.53;;
32242;SDS011;18731;42.830;24.390;2023-05-19T21:05:54;17.63;;;6.88;;
32242;SDS011;18731;42.830;24.390;2023-05-19T21:09:18;24.05;;;7.93;;
